createdAt,value
2018-06-12T06:38:03.440Z,98446.59
2018-06-12T06:40:32.812Z,98451.01
2018-06-12T06:43:02.292Z,98444.28
2018-06-12T06:45:31.304Z,98444.66
2018-06-12T06:48:00.561Z,98439.46
2018-06-12T06:50:29.870Z,98442.00
2018-06-12T06:52:59.246Z,98443.39
2018-06-12T06:55:28.511Z,98440.78
2018-06-12T06:57:57.812Z,98439.30
2018-06-12T07:00:27.238Z,98438.70
2018-06-12T07:02:56.583Z,98438.59
2018-06-12T07:05:25.613Z,98434.62
2018-06-12T07:07:54.762Z,98435.31
2018-06-12T07:10:23.884Z,98422.68
2018-06-12T07:12:53.024Z,98426.02
2018-06-12T07:15:22.242Z,98427.72
2018-06-12T07:17:51.375Z,98420.77
2018-06-12T07:20:31.444Z,98427.50
2018-06-12T07:23:00.804Z,98425.63
2018-06-12T07:25:30.119Z,98429.72
2018-06-12T07:27:59.121Z,98423.49
2018-06-12T07:30:28.455Z,98424.55
2018-06-12T07:32:57.772Z,98425.96
2018-06-12T07:35:27.132Z,98426.77
2018-06-12T07:37:56.422Z,98416.88
2018-06-12T07:40:25.687Z,98428.40
2018-06-12T07:42:54.912Z,98428.41
2018-06-12T07:45:24.012Z,98422.25
2018-06-12T07:47:53.259Z,98424.91
2018-06-12T07:50:22.484Z,98422.00
2018-06-12T07:52:51.860Z,98423.59
2018-06-12T07:55:21.197Z,98421.95
2018-06-12T07:57:50.701Z,98416.05
2018-06-12T08:00:19.676Z,98416.20
2018-06-12T08:02:48.737Z,98411.30
2018-06-12T08:05:18.145Z,98411.32
2018-06-12T08:07:47.347Z,98413.45
2018-06-12T08:10:16.641Z,98418.30
2018-06-12T08:12:46.045Z,98415.27
2018-06-12T08:15:15.368Z,98415.76
2018-06-12T08:17:44.758Z,98416.84
2018-06-12T08:20:14.144Z,98417.38
2018-06-12T08:22:43.525Z,98420.63
2018-06-12T08:25:12.921Z,98424.80
2018-06-12T08:27:42.224Z,98417.88
2018-06-12T08:30:11.573Z,98421.66
2018-06-12T08:32:40.868Z,98426.83
2018-06-12T08:35:10.409Z,98419.84
2018-06-12T08:37:39.686Z,98419.14
2018-06-12T08:40:08.943Z,98409.14
2018-06-12T08:42:38.296Z,98409.52
2018-06-12T08:45:07.495Z,98407.27
2018-06-12T08:47:36.929Z,98406.09
2018-06-12T08:50:06.117Z,98410.50
2018-06-12T08:52:35.153Z,98404.89
2018-06-12T08:55:04.484Z,98406.16
2018-06-12T08:57:33.809Z,98406.92
2018-06-12T09:00:03.221Z,98407.69
2018-06-12T09:02:32.633Z,98408.23
2018-06-12T09:05:01.901Z,98402.97
2018-06-12T09:07:31.081Z,98398.92
2018-06-12T09:10:00.333Z,98394.36
2018-06-12T09:12:29.625Z,98400.67
2018-06-12T09:14:59.050Z,98389.88
2018-06-12T09:17:28.309Z,98392.44
2018-06-12T09:19:57.601Z,98395.86
2018-06-12T09:22:26.917Z,98393.41
2018-06-12T09:24:56.288Z,98392.28
2018-06-12T09:27:25.488Z,98389.00
2018-06-12T09:29:54.720Z,98387.89
2018-06-12T09:32:23.708Z,98376.57
2018-06-12T09:34:53.059Z,98387.02
2018-06-12T09:37:22.293Z,98378.89
2018-06-12T09:39:51.508Z,98385.75
2018-06-12T09:42:20.832Z,98381.96
2018-06-12T09:44:49.870Z,98383.91
2018-06-12T09:47:18.876Z,98382.32
2018-06-12T09:49:47.956Z,98381.27
2018-06-12T09:52:16.927Z,98374.38
2018-06-12T09:54:46.037Z,98376.18
2018-06-12T09:57:15.287Z,98371.09
2018-06-12T09:59:44.569Z,98371.44
2018-06-12T10:02:15.461Z,98368.21
2018-06-12T10:04:44.752Z,98369.39
2018-06-12T10:07:14.033Z,98363.12
2018-06-12T10:09:43.303Z,98369.37
2018-06-12T10:12:12.676Z,98361.77
2018-06-12T10:14:41.865Z,98356.97
2018-06-12T10:17:11.170Z,98356.89
2018-06-12T10:19:40.613Z,98358.30
2018-06-12T10:22:09.973Z,98353.09
2018-06-12T10:24:39.304Z,98344.59
2018-06-12T10:27:08.577Z,98341.77
2018-06-12T10:29:37.892Z,98343.05
2018-06-12T10:32:07.272Z,98344.45
2018-06-12T10:34:36.637Z,98345.31
2018-06-12T10:37:06.293Z,98348.90
2018-06-12T10:39:35.500Z,98342.33
2018-06-12T10:42:04.719Z,98336.38
2018-06-12T10:44:34.069Z,98337.70
2018-06-12T10:47:03.374Z,98336.16
2018-06-12T10:49:32.585Z,98330.44
2018-06-12T10:52:01.913Z,98332.83
2018-06-12T10:54:31.398Z,98339.01
2018-06-12T10:57:00.813Z,98334.27
2018-06-12T10:59:30.141Z,98333.75
2018-06-12T11:01:59.512Z,98327.23
2018-06-12T11:04:28.989Z,98329.89
2018-06-12T11:06:58.252Z,98328.59
2018-06-12T11:09:27.533Z,98327.22
2018-06-12T11:11:56.861Z,98332.17
2018-06-12T11:14:26.234Z,98327.71
2018-06-12T11:16:55.336Z,98320.70
2018-06-12T11:19:24.676Z,98321.44
2018-06-12T11:21:54.064Z,98314.63
2018-06-12T11:24:23.481Z,98323.63
2018-06-12T11:26:52.900Z,98323.63
2018-06-12T11:29:22.192Z,98326.47
2018-06-12T11:31:51.448Z,98322.91
2018-06-12T11:34:20.845Z,98323.48
2018-06-12T11:36:50.106Z,98317.66
2018-06-12T11:39:19.371Z,98320.03
2018-06-12T11:41:48.692Z,98317.60
2018-06-12T11:44:18.023Z,98310.42
2018-06-12T11:46:47.300Z,98320.28
2018-06-12T11:49:16.763Z,98308.73
2018-06-12T11:51:46.141Z,98305.30
2018-06-12T11:54:15.336Z,98311.22
2018-06-12T11:56:44.611Z,98300.86
2018-06-12T11:59:13.849Z,98300.36
2018-06-12T12:01:43.002Z,98300.23
2018-06-12T12:04:12.300Z,98291.45
2018-06-12T12:06:41.532Z,98285.88
2018-06-12T12:09:10.813Z,98283.23
2018-06-12T12:11:40.043Z,98283.28
2018-06-12T12:14:09.295Z,98278.27
2018-06-12T12:16:39.224Z,98280.75
2018-06-12T12:19:08.332Z,98279.45
2018-06-12T12:21:37.332Z,98279.05
2018-06-12T12:24:06.778Z,98275.06
2018-06-12T12:26:35.976Z,98274.30
2018-06-12T12:29:05.364Z,98274.21
2018-06-12T12:31:34.727Z,98267.38
2018-06-12T12:34:04.393Z,98273.64
2018-06-12T12:36:33.736Z,98271.88
2018-06-12T12:39:03.161Z,98265.33
2018-06-12T12:41:32.465Z,98261.56
2018-06-12T12:44:01.652Z,98260.16
2018-06-12T12:46:30.968Z,98253.19
2018-06-12T12:49:00.128Z,98251.30
2018-06-12T12:51:29.205Z,98246.02
2018-06-12T12:53:58.494Z,98240.39
2018-06-12T12:56:27.916Z,98241.41
2018-06-12T12:58:57.279Z,98241.86
2018-06-12T13:01:26.673Z,98236.63
2018-06-12T13:03:56.036Z,98235.82
2018-06-12T13:06:25.364Z,98233.80
2018-06-12T13:08:54.684Z,98229.93
2018-06-12T13:11:24.073Z,98228.36
2018-06-12T13:13:53.543Z,98235.20
2018-06-12T13:16:22.752Z,98223.31
2018-06-12T13:18:51.980Z,98232.34
2018-06-12T13:21:21.211Z,98230.41
2018-06-12T13:23:50.480Z,98228.62
2018-06-12T13:26:19.908Z,98220.09
2018-06-12T13:28:49.169Z,98221.11
2018-06-12T13:31:18.553Z,98218.48
2018-06-12T13:33:47.947Z,98220.19
2018-06-12T13:36:17.297Z,98219.88
2018-06-12T13:38:46.696Z,98218.13
2018-06-12T13:41:16.058Z,98222.22
2018-06-12T13:43:45.417Z,98222.29
2018-06-12T13:46:14.744Z,98218.65
2018-06-12T13:48:44.009Z,98214.31
2018-06-12T13:51:13.312Z,98210.97
2018-06-12T13:53:42.428Z,98214.73
2018-06-12T13:56:11.560Z,98211.95
2018-06-12T13:58:40.933Z,98212.77
2018-06-12T14:01:10.341Z,98203.48
2018-06-12T14:03:39.756Z,98200.56
2018-06-12T14:06:09.040Z,98200.45
2018-06-12T14:08:38.255Z,98207.78
2018-06-12T14:11:07.549Z,98209.28
2018-06-12T14:13:36.803Z,98199.73
2018-06-12T14:16:06.097Z,98197.48
2018-06-12T14:18:35.454Z,98185.88
2018-06-12T14:21:04.663Z,98192.18
2018-06-12T14:23:33.908Z,98199.22
2018-06-12T14:26:03.037Z,98199.15
2018-06-12T14:28:32.274Z,98196.83
2018-06-12T14:31:01.216Z,98193.55
2018-06-12T14:33:30.439Z,98187.20
2018-06-12T14:35:59.624Z,98183.31
2018-06-12T14:38:28.906Z,98189.06
2018-06-12T14:40:58.376Z,98187.27
2018-06-12T14:43:27.404Z,98175.86
2018-06-12T14:45:56.669Z,98171.36
2018-06-12T14:48:26.103Z,98168.43
2018-06-12T14:50:55.352Z,98166.08
2018-06-12T14:53:24.628Z,98170.39
2018-06-12T14:55:54.065Z,98166.27
2018-06-12T14:58:23.341Z,98162.78
2018-06-12T15:00:52.660Z,98156.64
2018-06-12T15:03:21.955Z,98154.55
2018-06-12T15:05:51.325Z,98153.77
2018-06-12T15:08:20.589Z,98154.02
2018-06-12T15:10:50.005Z,98152.80
2018-06-12T15:13:19.375Z,98150.11
2018-06-12T15:15:48.688Z,98147.13
2018-06-12T15:18:17.836Z,98148.95
2018-06-12T15:20:47.195Z,98144.91
2018-06-12T15:23:16.311Z,98148.75
2018-06-12T15:25:45.424Z,98142.95
2018-06-12T15:28:14.553Z,98141.39
2018-06-12T15:30:43.697Z,98137.28
2018-06-12T15:33:12.965Z,98137.12
2018-06-12T15:35:42.077Z,98140.03
2018-06-12T15:38:11.315Z,98133.53
2018-06-12T15:40:40.619Z,98141.59
2018-06-12T15:43:09.912Z,98141.77
2018-06-12T15:45:39.232Z,98131.22
2018-06-12T15:48:09.314Z,98131.09
2018-06-12T15:50:38.568Z,98133.19
2018-06-12T15:53:07.784Z,98131.97
2018-06-12T15:55:37.093Z,98133.19
2018-06-12T15:58:06.395Z,98124.92
2018-06-12T16:00:35.789Z,98042.73
2018-06-12T16:03:04.997Z,98125.23
2018-06-12T16:05:34.332Z,98128.13
2018-06-12T16:08:03.651Z,98121.65
2018-06-12T16:10:32.619Z,98118.77
2018-06-12T16:13:01.941Z,98115.05
2018-06-12T16:15:31.295Z,98122.20
2018-06-12T16:18:00.592Z,98121.33
2018-06-12T16:20:29.873Z,98115.92
2018-06-12T16:22:59.236Z,98112.37
2018-06-12T16:25:28.525Z,98112.87
2018-06-12T16:27:57.569Z,98121.58
2018-06-12T16:30:26.920Z,98123.73
2018-06-12T16:32:55.927Z,98117.34
2018-06-12T16:35:25.159Z,98124.36
2018-06-12T16:37:54.400Z,98123.36
2018-06-12T16:40:23.515Z,98123.95
2018-06-12T16:42:52.735Z,98123.80
2018-06-12T16:45:22.008Z,98123.16
2018-06-12T16:47:51.346Z,98126.47
2018-06-12T16:50:21.270Z,98126.03
2018-06-12T16:52:50.635Z,98128.27
2018-06-12T16:55:19.997Z,98122.99
2018-06-12T16:57:49.436Z,98117.71
2018-06-12T17:00:18.804Z,98126.45
2018-06-12T17:02:47.955Z,98125.22
2018-06-12T17:05:17.154Z,98129.56
2018-06-12T17:07:46.373Z,98121.90
2018-06-12T17:10:15.662Z,98118.16
2018-06-12T17:12:44.922Z,98115.81
2018-06-12T17:15:14.205Z,98123.12
2018-06-12T17:17:43.479Z,98122.38
2018-06-12T17:20:12.692Z,98121.31
2018-06-12T17:22:42.073Z,98124.85
2018-06-12T17:25:11.335Z,98127.02
2018-06-12T17:27:40.561Z,98127.03
2018-06-12T17:30:09.949Z,98127.63
2018-06-12T17:32:39.299Z,98130.34
2018-06-12T17:35:08.746Z,98129.83
2018-06-12T17:37:38.105Z,98126.13
2018-06-12T17:40:07.541Z,98118.13
2018-06-12T17:42:36.972Z,98128.87
2018-06-12T17:45:06.332Z,98120.30
2018-06-12T17:47:35.673Z,98121.65
2018-06-12T17:50:05.050Z,98130.23
2018-06-12T17:52:34.464Z,98125.44
2018-06-12T17:55:03.754Z,98129.41
2018-06-12T17:57:33.101Z,98125.16
2018-06-12T18:00:02.442Z,98128.63
2018-06-12T18:02:31.624Z,98126.48
2018-06-12T18:05:00.916Z,98131.02
2018-06-12T18:07:30.212Z,98136.33
2018-06-12T18:09:59.491Z,98134.12
2018-06-12T18:12:28.966Z,98136.23
2018-06-12T18:14:58.324Z,98137.03
2018-06-12T18:17:27.557Z,98134.34
2018-06-12T18:20:03.384Z,98134.09
2018-06-12T18:22:32.869Z,98137.52
2018-06-12T18:25:02.101Z,98146.84
2018-06-12T18:27:31.256Z,98148.45
2018-06-12T18:30:00.519Z,98144.66
2018-06-12T18:32:29.831Z,98155.30
2018-06-12T18:34:59.205Z,98146.77
2018-06-12T18:37:28.617Z,98153.44
2018-06-12T18:39:57.988Z,98152.11
2018-06-12T18:42:27.317Z,98145.11
2018-06-12T18:44:56.612Z,98155.20
2018-06-12T18:47:25.864Z,98159.43
2018-06-12T18:49:55.252Z,98162.88
2018-06-12T18:52:24.607Z,98160.98
2018-06-12T18:54:53.788Z,98173.98
2018-06-12T18:57:23.125Z,98169.98
2018-06-12T18:59:52.312Z,98173.42
2018-06-12T19:02:21.567Z,98180.05
2018-06-12T19:04:50.760Z,98186.94
2018-06-12T19:07:19.841Z,98179.17
2018-06-12T19:09:49.025Z,98179.95
2018-06-12T19:12:18.269Z,98180.95
2018-06-12T19:14:47.590Z,98176.22
2018-06-12T19:17:16.857Z,98173.08
2018-06-12T19:19:46.076Z,98174.71
2018-06-12T19:22:15.375Z,98123.74
2018-06-12T19:24:44.680Z,98178.88
2018-06-12T19:27:14.002Z,98179.31
2018-06-12T19:29:43.332Z,98168.60
2018-06-12T19:32:12.524Z,98170.45
2018-06-12T19:34:41.709Z,98173.87
2018-06-12T19:37:10.981Z,98170.64
2018-06-12T19:39:40.275Z,98175.92
2018-06-12T19:42:09.467Z,98174.23
2018-06-12T19:44:38.719Z,98176.77
2018-06-12T19:47:07.938Z,98171.84
2018-06-12T19:49:37.172Z,98169.11
2018-06-12T19:52:06.482Z,98170.63
2018-06-12T19:54:35.768Z,98175.14
2018-06-12T19:57:05.036Z,98170.56
2018-06-12T19:59:34.256Z,98171.33
2018-06-12T20:02:03.741Z,98169.91
2018-06-12T20:04:32.999Z,98180.26
2018-06-12T20:07:02.281Z,98184.19
2018-06-12T20:09:32.233Z,98180.98
2018-06-12T20:12:01.528Z,98174.58
2018-06-12T20:14:30.897Z,98173.27
2018-06-12T20:17:00.124Z,98164.70
2018-06-12T20:19:29.534Z,98162.54
2018-06-12T20:21:58.928Z,98168.06
2018-06-12T20:24:28.355Z,98173.05
2018-06-12T20:26:57.539Z,98177.80
2018-06-12T20:29:26.809Z,98172.84
2018-06-12T20:31:56.003Z,98178.48
2018-06-12T20:34:25.257Z,98179.67
2018-06-12T20:36:54.648Z,98177.22
2018-06-12T20:39:23.769Z,98181.99
2018-06-12T20:41:52.890Z,98182.53
2018-06-12T20:44:22.025Z,98180.14
2018-06-12T20:46:51.063Z,98175.89
2018-06-12T20:49:20.340Z,98173.66
2018-06-12T20:51:49.552Z,98176.65
2018-06-12T20:54:18.847Z,98173.77
2018-06-12T20:56:48.206Z,98170.86
2018-06-12T20:59:17.415Z,98176.06
2018-06-12T21:01:46.860Z,98169.12
2018-06-12T21:04:16.163Z,98166.28
2018-06-12T21:06:45.612Z,98169.94
2018-06-12T21:09:14.991Z,98173.52
2018-06-12T21:11:44.309Z,98174.31
2018-06-12T21:14:13.718Z,98176.65
2018-06-12T21:16:42.994Z,98176.89
2018-06-12T21:19:11.965Z,98172.61
2018-06-12T21:21:41.168Z,98168.27
2018-06-12T21:24:10.348Z,98174.32
2018-06-12T21:26:39.584Z,98175.56
2018-06-12T21:29:08.900Z,98175.87
2018-06-12T21:31:38.337Z,98173.88
2018-06-12T21:34:07.626Z,98174.42
2018-06-12T21:36:37.037Z,98176.81
2018-06-12T21:39:08.124Z,98174.17
2018-06-12T21:41:37.985Z,98172.39
2018-06-12T21:44:07.369Z,98173.07
2018-06-12T21:46:36.532Z,98168.75
2018-06-12T21:49:06.151Z,98163.60
2018-06-12T21:51:36.528Z,98168.33
2018-06-12T21:54:05.767Z,98161.31
2018-06-12T21:56:34.998Z,98160.80
2018-06-12T21:59:04.283Z,98154.87
2018-06-12T22:01:33.592Z,98157.68
2018-06-12T22:04:02.937Z,98158.17
2018-06-12T22:06:32.188Z,98156.30
2018-06-12T22:09:01.422Z,98151.95
2018-06-12T22:11:30.632Z,98157.56
2018-06-12T22:13:59.843Z,98159.83
2018-06-12T22:16:29.221Z,98160.56
2018-06-12T22:18:58.510Z,98163.09
2018-06-12T22:21:27.825Z,98157.45
2018-06-12T22:23:57.253Z,98146.67
2018-06-12T22:26:26.391Z,98140.61
2018-06-12T22:28:55.560Z,98149.66
2018-06-12T22:31:24.818Z,98146.44
2018-06-12T22:33:54.039Z,98149.55
2018-06-12T22:36:23.283Z,98147.91
2018-06-12T22:38:52.584Z,98142.94
2018-06-12T22:41:21.865Z,98143.45
2018-06-12T22:43:51.135Z,98142.12
2018-06-12T22:46:20.368Z,98145.31
2018-06-12T22:48:49.696Z,98145.56
2018-06-12T22:51:19.032Z,98139.16
2018-06-12T22:53:48.291Z,98139.67
2018-06-12T22:56:17.421Z,98148.39
2018-06-12T22:58:46.776Z,98139.80
2018-06-12T23:01:16.116Z,98144.17
2018-06-12T23:03:45.472Z,98142.86
2018-06-12T23:06:14.811Z,98137.15
2018-06-12T23:08:44.136Z,98140.83
2018-06-12T23:11:13.469Z,98146.00
2018-06-12T23:13:42.732Z,98143.02
2018-06-12T23:16:12.017Z,98141.92
2018-06-12T23:18:41.415Z,98142.97
2018-06-12T23:21:21.309Z,98142.40
2018-06-12T23:23:50.616Z,98143.59
2018-06-12T23:26:20.083Z,98144.95
2018-06-12T23:28:49.400Z,98149.75
2018-06-12T23:31:18.737Z,98150.90
2018-06-12T23:33:48.044Z,98143.92
2018-06-12T23:36:17.428Z,98141.55
2018-06-12T23:38:46.765Z,98141.30
2018-06-12T23:41:16.025Z,98133.64
2018-06-12T23:43:45.325Z,98138.28
2018-06-12T23:46:14.637Z,98136.06
2018-06-12T23:48:44.110Z,98134.16
2018-06-12T23:51:13.375Z,98135.42
2018-06-12T23:53:42.325Z,98133.86
2018-06-12T23:56:11.707Z,98136.10
2018-06-12T23:58:40.892Z,98130.04
